sensor_id;sensor_type;location;lat;lon;timestamp;pressure;altitude;pressure_sealevel;temperature;humidity
68193;BME280;55012;47.562;18.414;2023-03-13T00:01:44;99247.09;;;4.91;100.00
68193;BME280;55012;47.562;18.414;2023-03-13T00:04:10;99280.72;;;4.97;100.00
68193;BME280;55012;47.562;18.414;2023-03-13T00:06:37;99303.91;;;5.02;100.00
68193;BME280;55012;47.562;18.414;2023-03-13T00:09:05;99324.44;;;5.06;100.00
68193;BME280;55012;47.562;18.414;2023-03-13T00:11:31;99318.66;;;5.13;100.00
68193;BME280;55012;47.562;18.414;2023-03-13T00:13:58;99319.31;;;5.19;100.00
68193;BME280;55012;47.562;18.414;2023-03-13T00:16:24;99310.94;;;5.20;100.00
68193;BME280;55012;47.562;18.414;2023-03-13T00:18:53;99300.22;;;5.20;100.00
68193;BME280;55012;47.562;18.414;2023-03-13T00:21:21;99290.91;;;5.18;100.00
68193;BME280;55012;47.562;18.414;2023-03-13T00:23:47;99304.94;;;5.15;100.00
68193;BME280;55012;47.562;18.414;2023-03-13T00:26:16;99318.16;;;5.11;100.00
68193;BME280;55012;47.562;18.414;2023-03-13T00:28:42;99325.03;;;5.03;100.00
68193;BME280;55012;47.562;18.414;2023-03-13T00:31:11;99349.69;;;5.05;100.00
68193;BME280;55012;47.562;18.414;2023-03-13T00:33:40;99373.81;;;5.05;100.00
68193;BME280;55012;47.562;18.414;2023-03-13T00:36:30;99388.00;;;5.06;100.00
68193;BME280;55012;47.562;18.414;2023-03-13T00:38:56;99390.38;;;5.07;100.00
68193;BME280;55012;47.562;18.414;2023-03-13T00:41:24;99381.19;;;5.00;100.00
68193;BME280;55012;47.562;18.414;2023-03-13T00:43:51;99381.56;;;5.07;100.00
68193;BME280;55012;47.562;18.414;2023-03-13T00:46:19;99370.50;;;5.08;100.00
68193;BME280;55012;47.562;18.414;2023-03-13T00:48:45;99378.56;;;5.08;100.00
68193;BME280;55012;47.562;18.414;2023-03-13T00:51:11;99376.19;;;5.07;100.00
68193;BME280;55012;47.562;18.414;2023-03-13T00:53:37;99407.44;;;5.12;100.00
68193;BME280;55012;47.562;18.414;2023-03-13T00:56:08;99433.66;;;5.15;100.00
68193;BME280;55012;47.562;18.414;2023-03-13T00:58:36;99495.81;;;5.17;100.00
68193;BME280;55012;47.562;18.414;2023-03-13T01:01:23;99544.41;;;5.15;100.00
68193;BME280;55012;47.562;18.414;2023-03-13T01:03:54;99602.09;;;5.13;100.00
68193;BME280;55012;47.562;18.414;2023-03-13T01:06:23;99640.53;;;5.08;100.00
68193;BME280;55012;47.562;18.414;2023-03-13T01:08:48;99693.88;;;5.10;100.00
68193;BME280;55012;47.562;18.414;2023-03-13T01:11:16;99720.69;;;5.10;100.00
68193;BME280;55012;47.562;18.414;2023-03-13T01:13:42;99732.50;;;5.08;100.00
68193;BME280;55012;47.562;18.414;2023-03-13T01:16:19;99741.16;;;5.05;100.00
68193;BME280;55012;47.562;18.414;2023-03-13T01:18:48;99741.44;;;5.04;100.00
68193;BME280;55012;47.562;18.414;2023-03-13T01:21:14;99743.41;;;4.98;100.00
68193;BME280;55012;47.562;18.414;2023-03-13T01:23:40;99753.13;;;4.94;100.00
68193;BME280;55012;47.562;18.414;2023-03-13T01:26:07;99747.88;;;4.89;100.00
68193;BME280;55012;47.562;18.414;2023-03-13T01:28:33;99756.47;;;4.86;100.00
68193;BME280;55012;47.562;18.414;2023-03-13T01:30:59;99754.41;;;4.83;100.00
68193;BME280;55012;47.562;18.414;2023-03-13T01:33:25;99767.00;;;4.83;100.00
68193;BME280;55012;47.562;18.414;2023-03-13T01:35:51;99785.28;;;4.81;100.00
68193;BME280;55012;47.562;18.414;2023-03-13T01:38:17;99799.47;;;4.81;100.00
68193;BME280;55012;47.562;18.414;2023-03-13T01:40:46;99807.00;;;4.79;100.00
68193;BME280;55012;47.562;18.414;2023-03-13T01:43:26;99815.81;;;4.79;100.00
68193;BME280;55012;47.562;18.414;2023-03-13T01:46:10;99824.16;;;4.78;100.00
68193;BME280;55012;47.562;18.414;2023-03-13T01:53:45;99844.53;;;4.60;100.00
68193;BME280;55012;47.562;18.414;2023-03-13T01:56:27;99858.22;;;4.59;100.00
68193;BME280;55012;47.562;18.414;2023-03-13T01:58:56;99871.41;;;4.55;100.00
68193;BME280;55012;47.562;18.414;2023-03-13T02:01:23;99884.81;;;4.55;100.00
68193;BME280;55012;47.562;18.414;2023-03-13T02:03:49;99919.91;;;4.54;100.00
68193;BME280;55012;47.562;18.414;2023-03-13T02:06:16;99948.03;;;4.56;100.00
68193;BME280;55012;47.562;18.414;2023-03-13T02:08:50;99982.50;;;4.63;100.00
68193;BME280;55012;47.562;18.414;2023-03-13T02:14:07;100032.63;;;4.62;100.00
68193;BME280;55012;47.562;18.414;2023-03-13T02:16:33;100060.28;;;4.58;100.00
68193;BME280;55012;47.562;18.414;2023-03-13T02:19:01;100086.59;;;4.50;100.00
68193;BME280;55012;47.562;18.414;2023-03-13T02:21:42;100112.47;;;4.36;100.00
68193;BME280;55012;47.562;18.414;2023-03-13T02:24:23;100138.03;;;4.23;100.00
68193;BME280;55012;47.562;18.414;2023-03-13T02:26:50;100178.00;;;4.15;100.00
68193;BME280;55012;47.562;18.414;2023-03-13T02:29:16;100251.38;;;4.14;100.00
68193;BME280;55012;47.562;18.414;2023-03-13T02:31:46;100294.75;;;4.11;100.00
68193;BME280;55012;47.562;18.414;2023-03-13T02:34:14;100317.28;;;4.05;100.00
68193;BME280;55012;47.562;18.414;2023-03-13T02:36:43;100316.78;;;3.98;100.00
68193;BME280;55012;47.562;18.414;2023-03-13T02:39:10;100336.09;;;3.89;100.00
68193;BME280;55012;47.562;18.414;2023-03-13T02:41:39;100341.47;;;3.84;100.00
68193;BME280;55012;47.562;18.414;2023-03-13T02:44:06;100338.25;;;3.77;100.00
68193;BME280;55012;47.562;18.414;2023-03-13T02:46:43;100305.09;;;3.73;100.00
68193;BME280;55012;47.562;18.414;2023-03-13T02:49:21;100300.03;;;3.66;100.00
68193;BME280;55012;47.562;18.414;2023-03-13T02:51:47;100286.66;;;3.61;100.00
68193;BME280;55012;47.562;18.414;2023-03-13T02:54:16;100281.06;;;3.58;100.00
68193;BME280;55012;47.562;18.414;2023-03-13T02:56:44;100276.00;;;3.51;100.00
68193;BME280;55012;47.562;18.414;2023-03-13T02:59:11;100263.97;;;3.49;100.00
68193;BME280;55012;47.562;18.414;2023-03-13T03:01:36;100238.31;;;3.43;100.00
68193;BME280;55012;47.562;18.414;2023-03-13T03:04:02;100230.84;;;3.34;100.00
68193;BME280;55012;47.562;18.414;2023-03-13T03:06:27;100223.91;;;3.28;100.00
68193;BME280;55012;47.562;18.414;2023-03-13T03:08:52;100220.47;;;3.23;100.00
68193;BME280;55012;47.562;18.414;2023-03-13T03:11:18;100229.00;;;3.20;100.00
68193;BME280;55012;47.562;18.414;2023-03-13T03:13:44;100247.47;;;3.16;100.00
68193;BME280;55012;47.562;18.414;2023-03-13T03:16:11;100262.72;;;3.16;100.00
68193;BME280;55012;47.562;18.414;2023-03-13T03:18:39;100271.81;;;3.15;100.00
68193;BME280;55012;47.562;18.414;2023-03-13T03:21:05;100292.66;;;3.13;100.00
68193;BME280;55012;47.562;18.414;2023-03-13T03:23:35;100294.53;;;3.12;100.00
68193;BME280;55012;47.562;18.414;2023-03-13T03:26:02;100302.56;;;3.12;100.00
68193;BME280;55012;47.562;18.414;2023-03-13T03:28:28;100311.66;;;3.11;100.00
68193;BME280;55012;47.562;18.414;2023-03-13T03:30:54;100310.31;;;3.08;100.00
68193;BME280;55012;47.562;18.414;2023-03-13T03:33:20;100311.38;;;3.02;100.00
68193;BME280;55012;47.562;18.414;2023-03-13T03:35:46;100314.84;;;3.03;100.00
68193;BME280;55012;47.562;18.414;2023-03-13T03:38:11;100316.72;;;3.02;100.00
68193;BME280;55012;47.562;18.414;2023-03-13T03:40:37;100323.69;;;3.08;100.00
68193;BME280;55012;47.562;18.414;2023-03-13T03:43:02;100319.66;;;3.16;100.00
68193;BME280;55012;47.562;18.414;2023-03-13T03:45:28;100332.22;;;3.26;100.00
68193;BME280;55012;47.562;18.414;2023-03-13T03:47:53;100334.09;;;3.35;100.00
68193;BME280;55012;47.562;18.414;2023-03-13T03:50:19;100339.16;;;3.42;100.00
68193;BME280;55012;47.562;18.414;2023-03-13T03:52:44;100329.78;;;3.50;100.00
68193;BME280;55012;47.562;18.414;2023-03-13T03:55:10;100335.09;;;3.55;100.00
68193;BME280;55012;47.562;18.414;2023-03-13T03:57:35;100339.66;;;3.59;100.00
68193;BME280;55012;47.562;18.414;2023-03-13T04:00:01;100329.19;;;3.63;100.00
68193;BME280;55012;47.562;18.414;2023-03-13T04:02:26;100333.19;;;3.71;100.00
68193;BME280;55012;47.562;18.414;2023-03-13T04:04:52;100324.38;;;3.70;100.00
68193;BME280;55012;47.562;18.414;2023-03-13T04:07:17;100323.28;;;3.71;100.00
68193;BME280;55012;47.562;18.414;2023-03-13T04:09:42;100328.91;;;3.70;100.00
68193;BME280;55012;47.562;18.414;2023-03-13T04:12:08;100324.38;;;3.75;100.00
68193;BME280;55012;47.562;18.414;2023-03-13T04:14:33;100327.56;;;3.82;100.00
68193;BME280;55012;47.562;18.414;2023-03-13T04:16:59;100323.75;;;3.88;100.00
68193;BME280;55012;47.562;18.414;2023-03-13T04:19:24;100322.69;;;3.94;100.00
68193;BME280;55012;47.562;18.414;2023-03-13T04:21:50;100315.44;;;4.00;100.00
68193;BME280;55012;47.562;18.414;2023-03-13T04:24:15;100309.53;;;4.03;100.00
68193;BME280;55012;47.562;18.414;2023-03-13T04:26:41;100298.00;;;4.03;100.00
68193;BME280;55012;47.562;18.414;2023-03-13T04:29:06;100288.09;;;4.03;100.00
68193;BME280;55012;47.562;18.414;2023-03-13T04:31:32;100265.59;;;4.04;100.00
68193;BME280;55012;47.562;18.414;2023-03-13T04:33:57;100259.72;;;4.07;100.00
68193;BME280;55012;47.562;18.414;2023-03-13T04:36:23;100251.91;;;4.11;100.00
68193;BME280;55012;47.562;18.414;2023-03-13T04:38:48;100253.50;;;4.17;100.00
68193;BME280;55012;47.562;18.414;2023-03-13T04:41:14;100247.56;;;4.20;100.00
68193;BME280;55012;47.562;18.414;2023-03-13T04:43:39;100247.56;;;4.20;100.00
68193;BME280;55012;47.562;18.414;2023-03-13T04:46:05;100243.56;;;4.22;100.00
68193;BME280;55012;47.562;18.414;2023-03-13T04:48:30;100229.91;;;4.19;100.00
68193;BME280;55012;47.562;18.414;2023-03-13T04:50:56;100222.72;;;4.14;100.00
68193;BME280;55012;47.562;18.414;2023-03-13T04:53:21;100219.75;;;4.16;100.00
68193;BME280;55012;47.562;18.414;2023-03-13T04:55:48;100202.34;;;4.13;100.00
68193;BME280;55012;47.562;18.414;2023-03-13T04:58:14;100204.22;;;4.18;100.00
68193;BME280;55012;47.562;18.414;2023-03-13T05:00:39;100180.41;;;4.11;100.00
68193;BME280;55012;47.562;18.414;2023-03-13T05:03:05;100177.53;;;4.03;100.00
68193;BME280;55012;47.562;18.414;2023-03-13T05:05:33;100173.22;;;4.07;100.00
68193;BME280;55012;47.562;18.414;2023-03-13T05:07:58;100163.84;;;4.09;100.00
68193;BME280;55012;47.562;18.414;2023-03-13T05:10:23;100148.56;;;4.10;100.00
68193;BME280;55012;47.562;18.414;2023-03-13T05:12:49;100146.72;;;4.05;100.00
68193;BME280;55012;47.562;18.414;2023-03-13T05:15:14;100139.28;;;3.97;100.00
68193;BME280;55012;47.562;18.414;2023-03-13T05:17:40;100132.41;;;3.86;100.00
68193;BME280;55012;47.562;18.414;2023-03-13T05:20:06;100121.75;;;3.81;100.00
68193;BME280;55012;47.562;18.414;2023-03-13T05:22:34;100118.00;;;3.77;100.00
68193;BME280;55012;47.562;18.414;2023-03-13T05:24:59;100125.25;;;3.76;100.00
68193;BME280;55012;47.562;18.414;2023-03-13T05:27:25;100134.63;;;3.74;100.00
68193;BME280;55012;47.562;18.414;2023-03-13T05:29:50;100130.09;;;3.74;100.00
68193;BME280;55012;47.562;18.414;2023-03-13T05:32:15;100129.28;;;3.74;100.00
68193;BME280;55012;47.562;18.414;2023-03-13T05:34:41;100137.84;;;3.76;100.00
68193;BME280;55012;47.562;18.414;2023-03-13T05:37:06;100136.75;;;3.77;100.00
68193;BME280;55012;47.562;18.414;2023-03-13T05:39:32;100133.00;;;3.78;100.00
68193;BME280;55012;47.562;18.414;2023-03-13T05:41:57;100133.78;;;3.78;100.00
68193;BME280;55012;47.562;18.414;2023-03-13T05:44:23;100133.03;;;3.73;100.00
68193;BME280;55012;47.562;18.414;2023-03-13T05:46:48;100129.06;;;3.65;100.00
68193;BME280;55012;47.562;18.414;2023-03-13T05:49:14;100139.78;;;3.60;100.00
68193;BME280;55012;47.562;18.414;2023-03-13T05:51:39;100135.53;;;3.59;100.00
68193;BME280;55012;47.562;18.414;2023-03-13T05:54:04;100130.19;;;3.54;100.00
68193;BME280;55012;47.562;18.414;2023-03-13T05:56:30;100131.84;;;3.50;100.00
68193;BME280;55012;47.562;18.414;2023-03-13T05:58:55;100139.28;;;3.53;100.00
68193;BME280;55012;47.562;18.414;2023-03-13T06:01:21;100141.44;;;3.56;100.00
68193;BME280;55012;47.562;18.414;2023-03-13T06:03:46;100152.66;;;3.58;100.00
68193;BME280;55012;47.562;18.414;2023-03-13T06:06:12;100158.53;;;3.60;100.00
68193;BME280;55012;47.562;18.414;2023-03-13T06:08:37;100166.00;;;3.63;100.00
68193;BME280;55012;47.562;18.414;2023-03-13T06:11:03;100165.16;;;3.67;100.00
68193;BME280;55012;47.562;18.414;2023-03-13T06:13:28;100169.47;;;3.63;100.00
68193;BME280;55012;47.562;18.414;2023-03-13T06:15:55;100174.28;;;3.61;100.00
68193;BME280;55012;47.562;18.414;2023-03-13T06:18:22;100177.75;;;3.62;100.00
68193;BME280;55012;47.562;18.414;2023-03-13T06:20:49;100196.47;;;3.67;100.00
68193;BME280;55012;47.562;18.414;2023-03-13T06:23:19;100195.38;;;3.73;100.00
68193;BME280;55012;47.562;18.414;2023-03-13T06:25:46;100197.75;;;3.80;100.00
68193;BME280;55012;47.562;18.414;2023-03-13T06:28:12;100199.59;;;3.84;100.00
68193;BME280;55012;47.562;18.414;2023-03-13T06:30:38;100190.50;;;3.85;100.00
68193;BME280;55012;47.562;18.414;2023-03-13T06:33:03;100198.78;;;3.89;100.00
68193;BME280;55012;47.562;18.414;2023-03-13T06:35:29;100194.75;;;3.86;100.00
68193;BME280;55012;47.562;18.414;2023-03-13T06:37:54;100188.06;;;3.89;100.00
68193;BME280;55012;47.562;18.414;2023-03-13T06:40:20;100193.66;;;3.92;100.00
68193;BME280;55012;47.562;18.414;2023-03-13T06:42:45;100181.31;;;3.97;100.00
68193;BME280;55012;47.562;18.414;2023-03-13T06:45:11;100184.25;;;4.00;100.00
68193;BME280;55012;47.562;18.414;2023-03-13T06:47:36;100182.38;;;4.01;100.00
68193;BME280;55012;47.562;18.414;2023-03-13T06:50:02;100179.41;;;4.02;100.00
68193;BME280;55012;47.562;18.414;2023-03-13T06:52:27;100168.13;;;4.05;100.00
68193;BME280;55012;47.562;18.414;2023-03-13T06:54:53;100168.91;;;4.11;100.00
68193;BME280;55012;47.562;18.414;2023-03-13T06:57:18;100159.28;;;4.10;100.00
68193;BME280;55012;47.562;18.414;2023-03-13T06:59:44;100140.25;;;4.11;100.00
68193;BME280;55012;47.562;18.414;2023-03-13T07:02:12;100144.50;;;4.17;100.00
68193;BME280;55012;47.562;18.414;2023-03-13T07:04:38;100146.13;;;4.13;100.00
68193;BME280;55012;47.562;18.414;2023-03-13T07:07:04;100147.47;;;4.16;100.00
68193;BME280;55012;47.562;18.414;2023-03-13T07:09:29;100148.44;;;4.25;100.00
68193;BME280;55012;47.562;18.414;2023-03-13T07:11:55;100152.13;;;4.34;100.00
68193;BME280;55012;47.562;18.414;2023-03-13T07:14:22;100149.63;;;4.43;100.00
68193;BME280;55012;47.562;18.414;2023-03-13T07:16:47;100134.34;;;4.48;100.00
68193;BME280;55012;47.562;18.414;2023-03-13T07:19:13;100130.00;;;4.53;100.00
68193;BME280;55012;47.562;18.414;2023-03-13T07:21:39;100127.78;;;4.60;100.00
68193;BME280;55012;47.562;18.414;2023-03-13T07:24:05;100119.69;;;4.65;100.00
68193;BME280;55012;47.562;18.414;2023-03-13T07:26:30;100110.00;;;4.69;100.00
68193;BME280;55012;47.562;18.414;2023-03-13T07:28:56;100096.03;;;4.72;100.00
68193;BME280;55012;47.562;18.414;2023-03-13T07:31:22;100094.16;;;4.72;100.00
68193;BME280;55012;47.562;18.414;2023-03-13T07:33:52;100078.28;;;4.76;100.00
68193;BME280;55012;47.562;18.414;2023-03-13T07:36:21;100048.94;;;4.66;100.00
68193;BME280;55012;47.562;18.414;2023-03-13T07:38:50;100054.91;;;4.82;100.00
68193;BME280;55012;47.562;18.414;2023-03-13T07:41:17;100058.63;;;4.86;100.00
68193;BME280;55012;47.562;18.414;2023-03-13T07:43:45;100039.13;;;4.80;100.00
68193;BME280;55012;47.562;18.414;2023-03-13T07:46:18;100044.28;;;4.95;100.00
68193;BME280;55012;47.562;18.414;2023-03-13T07:48:44;100034.81;;;5.03;100.00
68193;BME280;55012;47.562;18.414;2023-03-13T07:51:19;100027.69;;;5.12;100.00
68193;BME280;55012;47.562;18.414;2023-03-13T07:53:45;100024.31;;;5.25;100.00
68193;BME280;55012;47.562;18.414;2023-03-13T07:56:16;100025.50;;;5.38;100.00
68193;BME280;55012;47.562;18.414;2023-03-13T07:58:42;100018.56;;;5.51;100.00
68193;BME280;55012;47.562;18.414;2023-03-13T08:01:14;100004.63;;;5.68;100.00
68193;BME280;55012;47.562;18.414;2023-03-13T08:03:40;99980.00;;;5.79;100.00
68193;BME280;55012;47.562;18.414;2023-03-13T08:06:11;99981.34;;;5.96;100.00
68193;BME280;55012;47.562;18.414;2023-03-13T08:08:38;99976.00;;;6.09;100.00
68193;BME280;55012;47.562;18.414;2023-03-13T08:11:06;99954.84;;;6.22;100.00
68193;BME280;55012;47.562;18.414;2023-03-13T08:13:33;99937.59;;;6.36;100.00
68193;BME280;55012;47.562;18.414;2023-03-13T08:18:40;99892.88;;;6.68;100.00
68193;BME280;55012;47.562;18.414;2023-03-13T08:21:08;99877.19;;;6.84;100.00
68193;BME280;55012;47.562;18.414;2023-03-13T08:23:35;99856.53;;;6.93;100.00
68193;BME280;55012;47.562;18.414;2023-03-13T08:26:14;99823.16;;;6.94;100.00
68193;BME280;55012;47.562;18.414;2023-03-13T08:28:41;99813.03;;;6.91;100.00
68193;BME280;55012;47.562;18.414;2023-03-13T08:33:41;99787.22;;;6.90;100.00
68193;BME280;55012;47.562;18.414;2023-03-13T08:36:12;99787.09;;;6.95;100.00
68193;BME280;55012;47.562;18.414;2023-03-13T08:38:39;99780.16;;;7.02;100.00
68193;BME280;55012;47.562;18.414;2023-03-13T08:41:10;99769.47;;;7.11;100.00
68193;BME280;55012;47.562;18.414;2023-03-13T08:43:36;99756.69;;;7.17;100.00
68193;BME280;55012;47.562;18.414;2023-03-13T08:46:02;99754.50;;;7.27;100.00
68193;BME280;55012;47.562;18.414;2023-03-13T08:48:27;99731.28;;;7.31;100.00
68193;BME280;55012;47.562;18.414;2023-03-13T08:51:06;99729.41;;;7.41;100.00
68193;BME280;55012;47.562;18.414;2023-03-13T08:53:33;99702.34;;;7.46;100.00
68193;BME280;55012;47.562;18.414;2023-03-13T08:55:59;99676.56;;;7.53;100.00
68193;BME280;55012;47.562;18.414;2023-03-13T08:58:25;99661.50;;;7.61;100.00
68193;BME280;55012;47.562;18.414;2023-03-13T09:00:51;99637.31;;;7.70;100.00
68193;BME280;55012;47.562;18.414;2023-03-13T09:03:17;99621.44;;;7.85;100.00
68193;BME280;55012;47.562;18.414;2023-03-13T09:05:43;99632.41;;;7.98;100.00
68193;BME280;55012;47.562;18.414;2023-03-13T09:08:10;99614.31;;;8.07;100.00
68193;BME280;55012;47.562;18.414;2023-03-13T09:10:36;99607.03;;;8.16;100.00
68193;BME280;55012;47.562;18.414;2023-03-13T09:13:02;99595.44;;;8.24;100.00
68193;BME280;55012;47.562;18.414;2023-03-13T09:15:27;99584.97;;;8.31;100.00
68193;BME280;55012;47.562;18.414;2023-03-13T09:17:53;99571.47;;;8.40;100.00
68193;BME280;55012;47.562;18.414;2023-03-13T09:20:19;99574.16;;;8.49;100.00
68193;BME280;55012;47.562;18.414;2023-03-13T09:22:45;99545.56;;;8.56;100.00
68193;BME280;55012;47.562;18.414;2023-03-13T09:25:11;99538.25;;;8.65;100.00
68193;BME280;55012;47.562;18.414;2023-03-13T09:27:36;99528.34;;;8.78;100.00
68193;BME280;55012;47.562;18.414;2023-03-13T09:30:02;99519.44;;;8.86;100.00
68193;BME280;55012;47.562;18.414;2023-03-13T09:32:28;99495.41;;;8.93;100.00
68193;BME280;55012;47.562;18.414;2023-03-13T09:34:53;99466.59;;;9.06;100.00
68193;BME280;55012;47.562;18.414;2023-03-13T09:37:20;99416.28;;;9.22;100.00
68193;BME280;55012;47.562;18.414;2023-03-13T09:39:46;99391.03;;;9.39;100.00
68193;BME280;55012;47.562;18.414;2023-03-13T09:42:26;99350.81;;;9.58;100.00
68193;BME280;55012;47.562;18.414;2023-03-13T09:45:07;99305.50;;;9.76;100.00
68193;BME280;55012;47.562;18.414;2023-03-13T09:47:49;99288.56;;;9.92;100.00
68193;BME280;55012;47.562;18.414;2023-03-13T09:50:26;99262.34;;;10.04;100.00
68193;BME280;55012;47.562;18.414;2023-03-13T09:52:56;99222.81;;;10.12;100.00
68193;BME280;55012;47.562;18.414;2023-03-13T09:55:30;99200.72;;;10.22;100.00
68193;BME280;55012;47.562;18.414;2023-03-13T10:00:39;99187.09;;;10.47;100.00
68193;BME280;55012;47.562;18.414;2023-03-13T10:03:16;99196.75;;;10.60;100.00
68193;BME280;55012;47.562;18.414;2023-03-13T10:06:14;99173.53;;;10.75;100.00
68193;BME280;55012;47.562;18.414;2023-03-13T10:08:42;99174.97;;;10.84;100.00
68193;BME280;55012;47.562;18.414;2023-03-13T10:11:26;99183.78;;;10.97;100.00
68193;BME280;55012;47.562;18.414;2023-03-13T10:14:13;99156.00;;;11.16;100.00
68193;BME280;55012;47.562;18.414;2023-03-13T10:16:45;99159.16;;;11.34;100.00
68193;BME280;55012;47.562;18.414;2023-03-13T10:19:16;99175.84;;;11.51;100.00
68193;BME280;55012;47.562;18.414;2023-03-13T10:21:46;99168.34;;;11.64;100.00
68193;BME280;55012;47.562;18.414;2023-03-13T10:24:18;99167.47;;;11.76;100.00
68193;BME280;55012;47.562;18.414;2023-03-13T10:26:47;99160.09;;;11.92;100.00
68193;BME280;55012;47.562;18.414;2023-03-13T10:29:22;99168.16;;;12.08;100.00
68193;BME280;55012;47.562;18.414;2023-03-13T10:31:56;99171.47;;;12.36;100.00
68193;BME280;55012;47.562;18.414;2023-03-13T10:34:23;99179.84;;;12.70;100.00
68193;BME280;55012;47.562;18.414;2023-03-13T10:36:54;99192.00;;;12.99;100.00
68193;BME280;55012;47.562;18.414;2023-03-13T10:39:22;99206.31;;;13.19;100.00
68193;BME280;55012;47.562;18.414;2023-03-13T10:41:48;99202.69;;;13.34;100.00
68193;BME280;55012;47.562;18.414;2023-03-13T10:44:20;99199.38;;;13.44;100.00
68193;BME280;55012;47.562;18.414;2023-03-13T10:46:48;99172.50;;;13.39;100.00
68193;BME280;55012;47.562;18.414;2023-03-13T10:49:22;99134.03;;;13.37;100.00
68193;BME280;55012;47.562;18.414;2023-03-13T10:52:11;99050.97;;;13.36;100.00
68193;BME280;55012;47.562;18.414;2023-03-13T10:54:58;98953.84;;;13.30;100.00
68193;BME280;55012;47.562;18.414;2023-03-13T10:59:50;98852.94;;;13.31;100.00
68193;BME280;55012;47.562;18.414;2023-03-13T11:02:37;98842.56;;;13.40;100.00
68193;BME280;55012;47.562;18.414;2023-03-13T11:07:48;98817.63;;;13.72;100.00
68193;BME280;55012;47.562;18.414;2023-03-13T11:10:22;98813.94;;;13.94;100.00
68193;BME280;55012;47.562;18.414;2023-03-13T11:12:50;98798.94;;;14.22;100.00
68193;BME280;55012;47.562;18.414;2023-03-13T11:15:31;98811.13;;;14.42;100.00
68193;BME280;55012;47.562;18.414;2023-03-13T11:18:23;98822.09;;;14.49;100.00
68193;BME280;55012;47.562;18.414;2023-03-13T11:20:54;98831.88;;;14.57;100.00
68193;BME280;55012;47.562;18.414;2023-03-13T11:23:42;98852.50;;;14.66;100.00
68193;BME280;55012;47.562;18.414;2023-03-13T11:29:04;98904.00;;;14.92;100.00
68193;BME280;55012;47.562;18.414;2023-03-13T11:31:38;98928.56;;;14.99;100.00
68193;BME280;55012;47.562;18.414;2023-03-13T11:34:37;98962.06;;;15.14;100.00
68193;BME280;55012;47.562;18.414;2023-03-13T11:37:09;98978.06;;;15.19;100.00
68193;BME280;55012;47.562;18.414;2023-03-13T11:56:21;99045.06;;;15.24;100.00
68193;BME280;55012;47.562;18.414;2023-03-13T12:01:50;99042.91;;;14.96;100.00
68193;BME280;55012;47.562;18.414;2023-03-13T12:04:44;99032.00;;;14.92;100.00
68193;BME280;55012;47.562;18.414;2023-03-13T12:15:53;99036.72;;;14.99;100.00
68193;BME280;55012;47.562;18.414;2023-03-13T12:18:39;99018.34;;;14.88;100.00
68193;BME280;55012;47.562;18.414;2023-03-13T12:21:19;99015.53;;;14.74;100.00
68193;BME280;55012;47.562;18.414;2023-03-13T12:26:38;98994.03;;;14.58;100.00
68193;BME280;55012;47.562;18.414;2023-03-13T12:29:36;99004.59;;;14.71;100.00
68193;BME280;55012;47.562;18.414;2023-03-13T12:57:14;99003.00;;;16.58;100.00
68193;BME280;55012;47.562;18.414;2023-03-13T12:59:45;99017.06;;;16.74;100.00
68193;BME280;55012;47.562;18.414;2023-03-13T13:02:21;99008.88;;;16.89;100.00
68193;BME280;55012;47.562;18.414;2023-03-13T13:04:48;98988.97;;;16.88;100.00
68193;BME280;55012;47.562;18.414;2023-03-13T13:07:34;98989.75;;;16.78;100.00
68193;BME280;55012;47.562;18.414;2023-03-13T13:12:39;98974.91;;;16.75;100.00
68193;BME280;55012;47.562;18.414;2023-03-13T13:15:15;98971.00;;;16.83;100.00
68193;BME280;55012;47.562;18.414;2023-03-13T13:25:49;98994.75;;;17.15;100.00
68193;BME280;55012;47.562;18.414;2023-03-13T13:30:42;98990.00;;;17.40;100.00
68193;BME280;55012;47.562;18.414;2023-03-13T13:38:42;98996.50;;;17.75;100.00
68193;BME280;55012;47.562;18.414;2023-03-13T13:43:41;98988.63;;;17.88;100.00
68193;BME280;55012;47.562;18.414;2023-03-13T13:48:37;98978.28;;;17.40;100.00
68193;BME280;55012;47.562;18.414;2023-03-13T13:51:24;98967.44;;;17.04;100.00
68193;BME280;55012;47.562;18.414;2023-03-13T13:56:41;98975.69;;;16.83;100.00
68193;BME280;55012;47.562;18.414;2023-03-13T14:01:49;98979.59;;;16.75;100.00
68193;BME280;55012;47.562;18.414;2023-03-13T14:04:32;98976.84;;;16.71;100.00
68193;BME280;55012;47.562;18.414;2023-03-13T14:07:01;98974.13;;;16.71;100.00
68193;BME280;55012;47.562;18.414;2023-03-13T14:09:44;98984.28;;;16.64;100.00
68193;BME280;55012;47.562;18.414;2023-03-13T14:12:32;98989.75;;;16.56;100.00
68193;BME280;55012;47.562;18.414;2023-03-13T14:15:28;98979.59;;;16.43;100.00
68193;BME280;55012;47.562;18.414;2023-03-13T14:17:57;98967.88;;;16.42;100.00
68193;BME280;55012;47.562;18.414;2023-03-13T14:22:55;98949.19;;;16.48;100.00
68193;BME280;55012;47.562;18.414;2023-03-13T14:25:22;98955.00;;;16.50;100.00
68193;BME280;55012;47.562;18.414;2023-03-13T14:27:49;98948.38;;;16.54;100.00
68193;BME280;55012;47.562;18.414;2023-03-13T14:30:18;98946.81;;;16.50;100.00
68193;BME280;55012;47.562;18.414;2023-03-13T14:32:44;98958.13;;;16.63;100.00
68193;BME280;55012;47.562;18.414;2023-03-13T14:35:13;98940.19;;;16.65;100.00
68193;BME280;55012;47.562;18.414;2023-03-13T14:37:48;98937.47;;;16.58;100.00
68193;BME280;55012;47.562;18.414;2023-03-13T14:40:18;98944.09;;;16.50;100.00
68193;BME280;55012;47.562;18.414;2023-03-13T14:42:57;98940.19;;;16.51;100.00
68193;BME280;55012;47.562;18.414;2023-03-13T14:45:32;98937.09;;;16.49;100.00